الصفحة الرئيسية
METAR-TAF:

METAR-TAF

مطار :

Midway, الولايات المتحدة

دائرة عرض: 28-13N, خط طول: 177-22W, ارتفاع: 4 متر

METAR: مفقودة

زمن: 19:31 (05:31 UTC)

توقعات

تاريخ ووقت الإصدار 6ساعات و 11 دقيقة قبل الساعة 23:20UTC
التوقعات صالحة من06 الساعة 00 UTC إلى 06 الساعة 24 UTC
ريح 12 عقدة من الشمال/الشمال الغربي
الرؤية: 10 كم
غيوم متفرقة على ارتفاع 2500 قدم
غيوم متفرقة على ارتفاع 4500 قدم

TAF: PMDY 052320Z 0600/0624 34012KT P6SM SCT025 SCT045

أرصاد الطقس والتوقعات من أكثر من 4000 مطار (تقارير الطقس للمطار METAR والتنبؤ بالطقس بالمطارTAF).

المحطات المتاحة هي النقط الصفراء والحمراء على الخريطة.

حرك المؤشر فوق النقطة لمعرفة اسم المحطة.

ثم انقر لمعرفة أرصاد وتوقعات الطقس.

لتغيير الخارطة: اضغط على الأزرار الخضراء مع رمز الصليب الأسود للتكبير. على الزر الأخضر مع شرطة للتصغير، أو على الأسهم الخضراء للخرائط المجاورة.


METAR-TAF: